Buoy 55954

sailwx.info

Track history (hours):
 
Tides and Currents Weather Stations Pressure Air Temp Water Temp Dewpoint Dewpoint Depression Visibility Wind Speed Wind Dir Waves Ship Positions

Drifting buoy 55954

Last reported at 2017-Nov-22 11:00 UTC. Time now 2017-Nov-22 15:04 UTC.
Position S 23°23' E 165°20'.

Water temperature 23.8 ° C

Date/timePositionNaut miles runAvg speedWind from/ knotsBaromVisibWave heightAir tempDewpointWater temp
2017-Nov-22 11:00S 23°23' E 165°20'2 1.8 23.8
2017-Nov-22 10:00S 23°22' E 165°22'0 0.0 23.8
2017-Nov-22 09:00S 23°22' E 165°22'3 3.0 23.8
2017-Nov-22 08:00S 23°21' E 165°25'1 1.3 23.9
2017-Nov-22 07:00S 23°20' E 165°26'1 1.1 23.8
2017-Nov-22 06:00S 23°20' E 165°28'0 0.0 23.9
2017-Nov-22 05:00S 23°20' E 165°28'6 5.6 23.9
2017-Nov-22 04:00S 23°22' E 165°34'0 0.0 23.9
2017-Nov-21 23:00S 23°22' E 165°34'2 1.7 23.8
2017-Nov-21 22:00S 23°22' E 165°35'1 0.8 23.8
2017-Nov-21 21:00S 23°22' E 165°36'0 0.0 23.7
2017-Nov-21 20:00S 23°22' E 165°36'4 3.9 23.7
2017-Nov-21 19:00S 23°23' E 165°40'0 0.0 23.7
2017-Nov-21 18:00S 23°23' E 165°40'1 0.4 23.7
2017-Nov-21 16:00S 23°22' E 165°40'0 0.0 23.7
2017-Nov-21 15:00S 23°22' E 165°40'3 0.8 23.7
2017-Nov-21 11:00S 23°23' E 165°43'1 1.3 23.6
2017-Nov-21 10:00S 23°23' E 165°44'1 1.3 23.6
2017-Nov-21 09:00S 23°23' E 165°46'2 0.9 23.7
2017-Nov-21 07:00S 23°22' E 165°47'3 0.9 23.9
2017-Nov-21 04:00S 23°22' E 165°50'7 1.3 23.9
2017-Nov-20 23:00S 23°23' E 165°58'3 1.4 23.8
2017-Nov-20 21:00S 23°23' E 166°01'1 0.8 23.6
2017-Nov-20 20:00S 23°24' E 166°01'1 0.6 23.6
2017-Nov-20 19:00S 23°24' E 166°02'2 2.0 23.6
2017-Nov-20 18:00S 23°25' E 166°04'1 0.6 23.7
2017-Nov-20 17:00S 23°26' E 166°04'0 0.0 23.7
2017-Nov-20 16:00S 23°26' E 166°04'4 3.7 23.7
2017-Nov-20 15:00S 23°28' E 166°07'0 0.0 23.7
2017-Nov-20 11:00S 23°28' E 166°07'1 0.6 23.9
2017-Nov-20 10:00S 23°28' E 166°07'0 0.0 24.0
2017-Nov-20 09:00S 23°28' E 166°07'1 0.3 24.1
2017-Nov-20 07:00S 23°28' E 166°07'3 2.8 24.2
2017-Nov-20 06:00S 23°27' E 166°10'0 0.0 24.2
2017-Nov-20 05:00S 23°27' E 166°10'1 0.6 24.3
2017-Nov-20 04:00S 23°27' E 166°10'5 0.8 24.2
2017-Nov-19 22:00S 23°27' E 166°15'1 1.3 23.7
2017-Nov-19 21:00S 23°28' E 166°16'1 1.3 23.6
2017-Nov-19 20:00S 23°27' E 166°17'0 0.0 23.5
2017-Nov-19 19:00S 23°27' E 166°17'4 1.4 23.4
2017-Nov-19 16:00S 23°29' E 166°22'1 0.6 23.5
2017-Nov-19 15:00S 23°29' E 166°21'6 1.3 23.5
2017-Nov-19 10:00S 23°33' E 166°26'1 1.2 23.6
2017-Nov-19 09:00S 23°34' E 166°26'1 1.2 23.7
2017-Nov-19 08:00S 23°35' E 166°26'1 0.3 23.7
2017-Nov-19 06:00S 23°35' E 166°27'1 0.8 23.8
2017-Nov-19 05:00S 23°36' E 166°26'1 0.5 23.8
2017-Nov-19 04:00S 23°36' E 166°27'0 0.0 23.8
2017-Nov-19 03:00S 23°36' E 166°27'1 0.2 23.8
2017-Nov-18 23:00S 23°35' E 166°28'2 1.8 23.4
2017-Nov-18 22:00S 23°36' E 166°29'1 0.5 23.3
2017-Nov-18 21:00S 23°36' E 166°30'2 1.8 23.3
2017-Nov-18 20:00S 23°37' E 166°32'3 3.3 23.3
2017-Nov-18 19:00S 23°38' E 166°35'0 0.0 23.3
2017-Nov-18 16:00S 23°38' E 166°35'5 2.5 23.3
2017-Nov-18 14:00S 23°41' E 166°40'1 0.4 23.3
2017-Nov-18 11:00S 23°41' E 166°41'1 0.5 23.3
2017-Nov-18 10:00S 23°41' E 166°40'2 1.6 23.3
2017-Nov-18 09:00S 23°43' E 166°41'2 2.0 23.4
2017-Nov-18 08:00S 23°44' E 166°43'0 0.0 23.3
2017-Nov-18 07:00S 23°44' E 166°43'2 2.4 23.4
2017-Nov-18 06:00S 23°46' E 166°45'0 0.0 23.4
2017-Nov-18 05:00S 23°46' E 166°45'2 1.8 23.4
2017-Nov-18 04:00S 23°47' E 166°45'0 0.0 23.4
2017-Nov-18 03:00S 23°47' E 166°45'4 0.8 23.4
2017-Nov-17 22:00S 23°51' E 166°47'1 1.3 23.4
2017-Nov-17 21:00S 23°52' E 166°49'2 0.8 23.4
2017-Nov-17 19:00S 23°53' E 166°50'2 0.8 23.3
2017-Nov-17 16:00S 23°55' E 166°50'0 0.0 23.3
2017-Nov-17 15:00S 23°55' E 166°50'0 0.0 23.3
2017-Nov-17 14:00S 23°55' E 166°50'3 0.8 23.3
2017-Nov-17 11:00S 23°56' E 166°53'1 1.3 23.4
2017-Nov-17 10:00S 23°58' E 166°53'2 1.2 23.4
2017-Nov-17 08:00S 23°59' E 166°55'0 0.0 23.4
2017-Nov-17 07:00S 23°59' E 166°55'2 1.6 23.4
2017-Nov-17 06:00S 24°01' E 166°56'2 2.4 23.4
2017-Nov-17 05:00S 24°02' E 166°58'0 0.0 23.5
2017-Nov-17 03:00S 24°02' E 166°58'4 1.0 23.5
2017-Nov-16 23:00S 24°06' E 167°00'1 1.3 23.4
2017-Nov-16 22:00S 24°07' E 167°01'0 0.0 23.4
2017-Nov-16 21:00S 24°07' E 167°01'4 4.1 23.4
2017-Nov-16 20:00S 24°10' E 167°04'1 0.4 23.4
2017-Nov-16 18:00S 24°11' E 167°04'1 0.6 23.4
2017-Nov-16 17:00S 24°11' E 167°04'1 0.8 23.4
2017-Nov-16 16:00S 24°12' E 167°05'0 0.0 23.4
2017-Nov-16 15:00S 24°12' E 167°05'3 0.8 23.4
2017-Nov-16 11:00S 24°15' E 167°06'0 0.0 23.4
2017-Nov-16 10:00S 24°15' E 167°06'2 2.0 23.4
2017-Nov-16 09:00S 24°16' E 167°08'1 0.8 23.4
2017-Nov-16 08:00S 24°17' E 167°07'0 0.0 23.4
2017-Nov-16 07:00S 24°17' E 167°07'2 2.5 23.5
2017-Nov-16 06:00S 24°18' E 167°10'0 0.0 23.5
2017-Nov-16 05:00S 24°18' E 167°10'1 0.8 23.5
2017-Nov-16 04:00S 24°19' E 167°10'5 1.1 23.6
2017-Nov-15 23:00S 24°23' E 167°14'1 0.7 23.4
2017-Nov-15 21:00S 24°24' E 167°14'1 1.2 23.4
2017-Nov-15 20:00S 24°25' E 167°16'0 0.0 23.3
2017-Nov-15 19:00S 24°25' E 167°16'1 0.5 23.3
2017-Nov-15 17:00S 24°25' E 167°17'1 1.1 23.3
2017-Nov-15 16:00S 24°25' E 167°18'0 0.0 23.3
2017-Nov-15 15:00S 24°25' E 167°18'4 1.0 23.3
2017-Nov-15 11:00S 24°26' E 167°22'3 3.3 23.3
2017-Nov-15 10:00S 24°28' E 167°25'0 0.0 23.3
2017-Nov-15 09:00S 24°28' E 167°25'2 1.9 23.3
2017-Nov-15 08:00S 24°29' E 167°26'2 0.8 23.4
2017-Nov-15 06:00S 24°29' E 167°28'1 1.3 23.4
2017-Nov-15 05:00S 24°31' E 167°28'0 0.0 23.4
2017-Nov-15 04:00S 24°31' E 167°28'0 0.0 23.4
2017-Nov-15 03:00S 24°31' E 167°28'7 1.3 23.4
2017-Nov-14 22:00S 24°34' E 167°35'1 0.6 23.2
2017-Nov-14 21:00S 24°33' E 167°35'1 0.6 23.2
2017-Nov-14 20:00S 24°34' E 167°35'1 0.6 23.2
2017-Nov-14 19:00S 24°34' E 167°35'3 2.8 23.1
2017-Nov-14 18:00S 24°36' E 167°37'1 1.3 23.1
2017-Nov-14 17:00S 24°35' E 167°38'0 0.0 23.1
2017-Nov-14 16:00S 24°35' E 167°38'0 0.0 23.1
2017-Nov-14 15:00S 24°35' E 167°38'2 0.6 23.1
2017-Nov-14 11:00S 24°36' E 167°40'0 0.0 23.1
2017-Nov-14 10:00S 24°36' E 167°40'1 1.1 23.1
2017-Nov-14 09:00S 24°36' E 167°41'1 1.2 23.1
2017-Nov-14 08:00S 24°37' E 167°43'2 2.5 23.1
2017-Nov-14 07:00S 24°38' E 167°45'0 0.0 23.1
2017-Nov-14 06:00S 24°38' E 167°45'1 1.2 23.2
2017-Nov-14 05:00S 24°38' E 167°46'1 0.8 23.2
2017-Nov-14 04:00S 24°39' E 167°47'6 1.1 23.2
2017-Nov-13 22:00S 24°45' E 167°49'2 1.2 22.9
2017-Nov-13 20:00S 24°47' E 167°50'1 0.6 22.7
2017-Nov-13 18:00S 24°48' E 167°51'2 1.9 22.7
2017-Nov-13 17:00S 24°50' E 167°52'7 1.1 22.7
2017-Nov-13 10:00S 24°57' E 167°53'1 0.8 22.6
2017-Nov-13 09:00S 24°58' E 167°54'3 1.6 22.7
2017-Nov-13 07:00S 25°01' E 167°55'1 0.8 22.7
2017-Nov-13 06:00S 25°01' E 167°56'2 2.4 22.7
2017-Nov-13 05:00S 25°04' E 167°56'1110.8 22.8
2017-Nov-13 04:00S 25°13' E 168°01'0 0.0 22.8
2017-Nov-12 22:00S 25°13' E 168°01'4 4.0 22.6
2017-Nov-12 21:00S 25°17' E 168°03'5 4.5 22.6
2017-Nov-12 20:00S 25°21' E 168°05'0 0.0 22.5
2017-Nov-12 19:00S 25°21' E 168°05'1 0.6 22.5
2017-Nov-12 18:00S 25°22' E 168°05'14 4.8 22.5
2017-Nov-12 15:00S 25°34' E 168°14'0 0.0 22.5
2017-Nov-12 11:00S 25°34' E 168°14'   22.6
Track history (hours):
 
Tides and Currents Weather Stations Pressure Air Temp Water Temp Dewpoint Dewpoint Depression Visibility Wind Speed Wind Dir Waves Ship Positions

Drifting buoy 55954

Last reported at 2017-Nov-22 11:00 UTC. Time now 2017-Nov-22 15:04 UTC.
Position S 23°23' E 165°20'.

Water temperature 23.8 ° C

Date/timePositionNaut miles runAvg speedWind from/ knotsBaromVisibWave heightAir tempDewpointWater temp
2017-Nov-22 11:00S 23°23' E 165°20'2 1.8 23.8
2017-Nov-22 10:00S 23°22' E 165°22'0 0.0 23.8
2017-Nov-22 09:00S 23°22' E 165°22'3 3.0 23.8
2017-Nov-22 08:00S 23°21' E 165°25'1 1.3 23.9
2017-Nov-22 07:00S 23°20' E 165°26'1 1.1 23.8
2017-Nov-22 06:00S 23°20' E 165°28'0 0.0 23.9
2017-Nov-22 05:00S 23°20' E 165°28'6 5.6 23.9
2017-Nov-22 04:00S 23°22' E 165°34'0 0.0 23.9
2017-Nov-21 23:00S 23°22' E 165°34'2 1.7 23.8
2017-Nov-21 22:00S 23°22' E 165°35'1 0.8 23.8
2017-Nov-21 21:00S 23°22' E 165°36'0 0.0 23.7
2017-Nov-21 20:00S 23°22' E 165°36'4 3.9 23.7
2017-Nov-21 19:00S 23°23' E 165°40'0 0.0 23.7
2017-Nov-21 18:00S 23°23' E 165°40'1 0.4 23.7
2017-Nov-21 16:00S 23°22' E 165°40'0 0.0 23.7
2017-Nov-21 15:00S 23°22' E 165°40'3 0.8 23.7
2017-Nov-21 11:00S 23°23' E 165°43'1 1.3 23.6
2017-Nov-21 10:00S 23°23' E 165°44'1 1.3 23.6
2017-Nov-21 09:00S 23°23' E 165°46'2 0.9 23.7
2017-Nov-21 07:00S 23°22' E 165°47'3 0.9 23.9
2017-Nov-21 04:00S 23°22' E 165°50'7 1.3 23.9
2017-Nov-20 23:00S 23°23' E 165°58'3 1.4 23.8
2017-Nov-20 21:00S 23°23' E 166°01'1 0.8 23.6
2017-Nov-20 20:00S 23°24' E 166°01'1 0.6 23.6
2017-Nov-20 19:00S 23°24' E 166°02'2 2.0 23.6
2017-Nov-20 18:00S 23°25' E 166°04'1 0.6 23.7
2017-Nov-20 17:00S 23°26' E 166°04'0 0.0 23.7
2017-Nov-20 16:00S 23°26' E 166°04'4 3.7 23.7
2017-Nov-20 15:00S 23°28' E 166°07'0 0.0 23.7
2017-Nov-20 11:00S 23°28' E 166°07'1 0.6 23.9
2017-Nov-20 10:00S 23°28' E 166°07'0 0.0 24.0
2017-Nov-20 09:00S 23°28' E 166°07'1 0.3 24.1
2017-Nov-20 07:00S 23°28' E 166°07'3 2.8 24.2
2017-Nov-20 06:00S 23°27' E 166°10'0 0.0 24.2
2017-Nov-20 05:00S 23°27' E 166°10'1 0.6 24.3
2017-Nov-20 04:00S 23°27' E 166°10'5 0.8 24.2
2017-Nov-19 22:00S 23°27' E 166°15'1 1.3 23.7
2017-Nov-19 21:00S 23°28' E 166°16'1 1.3 23.6
2017-Nov-19 20:00S 23°27' E 166°17'0 0.0 23.5
2017-Nov-19 19:00S 23°27' E 166°17'4 1.4 23.4
2017-Nov-19 16:00S 23°29' E 166°22'1 0.6 23.5
2017-Nov-19 15:00S 23°29' E 166°21'6 1.3 23.5
2017-Nov-19 10:00S 23°33' E 166°26'1 1.2 23.6
2017-Nov-19 09:00S 23°34' E 166°26'1 1.2 23.7
2017-Nov-19 08:00S 23°35' E 166°26'1 0.3 23.7
2017-Nov-19 06:00S 23°35' E 166°27'1 0.8 23.8
2017-Nov-19 05:00S 23°36' E 166°26'1 0.5 23.8
2017-Nov-19 04:00S 23°36' E 166°27'0 0.0 23.8
2017-Nov-19 03:00S 23°36' E 166°27'1 0.2 23.8
2017-Nov-18 23:00S 23°35' E 166°28'2 1.8 23.4
2017-Nov-18 22:00S 23°36' E 166°29'1 0.5 23.3
2017-Nov-18 21:00S 23°36' E 166°30'2 1.8 23.3
2017-Nov-18 20:00S 23°37' E 166°32'3 3.3 23.3
2017-Nov-18 19:00S 23°38' E 166°35'0 0.0 23.3
2017-Nov-18 16:00S 23°38' E 166°35'5 2.5 23.3
2017-Nov-18 14:00S 23°41' E 166°40'1 0.4 23.3
2017-Nov-18 11:00S 23°41' E 166°41'1 0.5 23.3
2017-Nov-18 10:00S 23°41' E 166°40'2 1.6 23.3
2017-Nov-18 09:00S 23°43' E 166°41'2 2.0 23.4
2017-Nov-18 08:00S 23°44' E 166°43'0 0.0 23.3
2017-Nov-18 07:00S 23°44' E 166°43'2 2.4 23.4
2017-Nov-18 06:00S 23°46' E 166°45'0 0.0 23.4
2017-Nov-18 05:00S 23°46' E 166°45'2 1.8 23.4
2017-Nov-18 04:00S 23°47' E 166°45'0 0.0 23.4
2017-Nov-18 03:00S 23°47' E 166°45'4 0.8 23.4
2017-Nov-17 22:00S 23°51' E 166°47'1 1.3 23.4
2017-Nov-17 21:00S 23°52' E 166°49'2 0.8 23.4
2017-Nov-17 19:00S 23°53' E 166°50'2 0.8 23.3
2017-Nov-17 16:00S 23°55' E 166°50'0 0.0 23.3
2017-Nov-17 15:00S 23°55' E 166°50'0 0.0 23.3
2017-Nov-17 14:00S 23°55' E 166°50'3 0.8 23.3
2017-Nov-17 11:00S 23°56' E 166°53'1 1.3 23.4
2017-Nov-17 10:00S 23°58' E 166°53'2 1.2 23.4
2017-Nov-17 08:00S 23°59' E 166°55'0 0.0 23.4
2017-Nov-17 07:00S 23°59' E 166°55'2 1.6 23.4
2017-Nov-17 06:00S 24°01' E 166°56'2 2.4 23.4
2017-Nov-17 05:00S 24°02' E 166°58'0 0.0 23.5
2017-Nov-17 03:00S 24°02' E 166°58'4 1.0 23.5
2017-Nov-16 23:00S 24°06' E 167°00'1 1.3 23.4
2017-Nov-16 22:00S 24°07' E 167°01'0 0.0 23.4
2017-Nov-16 21:00S 24°07' E 167°01'4 4.1 23.4
2017-Nov-16 20:00S 24°10' E 167°04'1 0.4 23.4
2017-Nov-16 18:00S 24°11' E 167°04'1 0.6 23.4
2017-Nov-16 17:00S 24°11' E 167°04'1 0.8 23.4
2017-Nov-16 16:00S 24°12' E 167°05'0 0.0 23.4
2017-Nov-16 15:00S 24°12' E 167°05'3 0.8 23.4
2017-Nov-16 11:00S 24°15' E 167°06'0 0.0 23.4
2017-Nov-16 10:00S 24°15' E 167°06'2 2.0 23.4
2017-Nov-16 09:00S 24°16' E 167°08'1 0.8 23.4
2017-Nov-16 08:00S 24°17' E 167°07'0 0.0 23.4
2017-Nov-16 07:00S 24°17' E 167°07'2 2.5 23.5
2017-Nov-16 06:00S 24°18' E 167°10'0 0.0 23.5
2017-Nov-16 05:00S 24°18' E 167°10'1 0.8 23.5
2017-Nov-16 04:00S 24°19' E 167°10'5 1.1 23.6
2017-Nov-15 23:00S 24°23' E 167°14'1 0.7 23.4
2017-Nov-15 21:00S 24°24' E 167°14'1 1.2 23.4
2017-Nov-15 20:00S 24°25' E 167°16'0 0.0 23.3
2017-Nov-15 19:00S 24°25' E 167°16'1 0.5 23.3
2017-Nov-15 17:00S 24°25' E 167°17'1 1.1 23.3
2017-Nov-15 16:00S 24°25' E 167°18'0 0.0 23.3
2017-Nov-15 15:00S 24°25' E 167°18'4 1.0 23.3
2017-Nov-15 11:00S 24°26' E 167°22'3 3.3 23.3
2017-Nov-15 10:00S 24°28' E 167°25'0 0.0 23.3
2017-Nov-15 09:00S 24°28' E 167°25'2 1.9 23.3
2017-Nov-15 08:00S 24°29' E 167°26'2 0.8 23.4
2017-Nov-15 06:00S 24°29' E 167°28'1 1.3 23.4
2017-Nov-15 05:00S 24°31' E 167°28'0 0.0 23.4
2017-Nov-15 04:00S 24°31' E 167°28'0 0.0 23.4
2017-Nov-15 03:00S 24°31' E 167°28'7 1.3 23.4
2017-Nov-14 22:00S 24°34' E 167°35'1 0.6 23.2
2017-Nov-14 21:00S 24°33' E 167°35'1 0.6 23.2
2017-Nov-14 20:00S 24°34' E 167°35'1 0.6 23.2
2017-Nov-14 19:00S 24°34' E 167°35'3 2.8 23.1
2017-Nov-14 18:00S 24°36' E 167°37'1 1.3 23.1
2017-Nov-14 17:00S 24°35' E 167°38'0 0.0 23.1
2017-Nov-14 16:00S 24°35' E 167°38'0 0.0 23.1
2017-Nov-14 15:00S 24°35' E 167°38'2 0.6 23.1
2017-Nov-14 11:00S 24°36' E 167°40'0 0.0 23.1
2017-Nov-14 10:00S 24°36' E 167°40'1 1.1 23.1
2017-Nov-14 09:00S 24°36' E 167°41'1 1.2 23.1
2017-Nov-14 08:00S 24°37' E 167°43'2 2.5 23.1
2017-Nov-14 07:00S 24°38' E 167°45'0 0.0 23.1
2017-Nov-14 06:00S 24°38' E 167°45'1 1.2 23.2
2017-Nov-14 05:00S 24°38' E 167°46'1 0.8 23.2
2017-Nov-14 04:00S 24°39' E 167°47'6 1.1 23.2
2017-Nov-13 22:00S 24°45' E 167°49'2 1.2 22.9
2017-Nov-13 20:00S 24°47' E 167°50'1 0.6 22.7
2017-Nov-13 18:00S 24°48' E 167°51'2 1.9 22.7
2017-Nov-13 17:00S 24°50' E 167°52'7 1.1 22.7
2017-Nov-13 10:00S 24°57' E 167°53'1 0.8 22.6
2017-Nov-13 09:00S 24°58' E 167°54'3 1.6 22.7
2017-Nov-13 07:00S 25°01' E 167°55'1 0.8 22.7
2017-Nov-13 06:00S 25°01' E 167°56'2 2.4 22.7
2017-Nov-13 05:00S 25°04' E 167°56'1110.8 22.8
2017-Nov-13 04:00S 25°13' E 168°01'0 0.0 22.8
2017-Nov-12 22:00S 25°13' E 168°01'4 4.0 22.6
2017-Nov-12 21:00S 25°17' E 168°03'5 4.5 22.6
2017-Nov-12 20:00S 25°21' E 168°05'0 0.0 22.5
2017-Nov-12 19:00S 25°21' E 168°05'1 0.6 22.5
2017-Nov-12 18:00S 25°22' E 168°05'14 4.8 22.5
2017-Nov-12 15:00S 25°34' E 168°14'0 0.0 22.5
2017-Nov-12 11:00S 25°34' E 168°14'   22.6

Dump ship's entire track history